Time;durP1;ratioP1;P1;durP2;ratioP2;P2;SDS_P1;SDS_P2;PMS_P1;PMS_P2;Temp;Humidity;BMP_temperature;BMP_pressure;BME280_temperature;BME280_humidity;BME280_pressure;Samples;Min_cycle;Max_cycle;Signal;HPM_P1;HPM_P2
2023/03/08 00:00:00;;;;;;;6.07;3.90;;;0.10;99.90;;;;;;5068533;28;20055;-70
2023/03/08 00:02:26;;;;;;;6.10;3.70;;;0.00;99.90;;;;;;5085114;28;20417;-70
2023/03/08 00:04:58;;;;;;;5.57;3.47;;;0.00;99.90;;;;;;5085376;28;20048;-70
2023/03/08 00:07:23;;;;;;;5.83;4.30;;;0.00;99.90;;;;;;5089745;28;20067;-70
2023/03/08 00:09:49;;;;;;;5.57;3.40;;;0.00;99.90;;;;;;5067496;28;20040;-70
2023/03/08 00:12:18;;;;;;;6.60;3.70;;;0.00;99.90;;;;;;5068442;28;20090;-70
2023/03/08 00:14:44;;;;;;;7.90;3.57;;;0.00;99.90;;;;;;5066537;28;20036;-70
2023/03/08 00:17:11;;;;;;;7.47;4.03;;;0.00;99.90;;;;;;5068213;28;20127;-71
2023/03/08 00:19:37;;;;;;;8.17;3.97;;;-0.10;99.90;;;;;;5068005;28;20055;-71
2023/03/08 00:22:03;;;;;;;5.53;2.83;;;0.00;99.90;;;;;;5066733;28;20094;-71
2023/03/08 00:24:30;;;;;;;5.47;3.50;;;0.00;99.90;;;;;;5066507;28;20070;-70
2023/03/08 00:26:55;;;;;;;6.87;3.40;;;0.00;99.90;;;;;;5052182;28;20032;-70
2023/03/08 00:29:21;;;;;;;4.53;3.40;;;0.00;99.90;;;;;;5081662;28;20078;-70
2023/03/08 00:31:47;;;;;;;7.07;4.40;;;0.00;99.90;;;;;;5049995;28;20093;-71
2023/03/08 00:34:13;;;;;;;8.53;4.47;;;-0.10;99.90;;;;;;5078796;28;20446;-71
2023/03/08 00:36:39;;;;;;;5.80;3.57;;;-0.10;99.90;;;;;;5069439;28;20040;-71
2023/03/08 00:39:05;;;;;;;6.33;4.00;;;-0.10;99.90;;;;;;5066894;28;20052;-71
2023/03/08 00:41:31;;;;;;;5.77;4.00;;;-0.10;99.90;;;;;;5084026;28;20959;-71
2023/03/08 00:43:57;;;;;;;7.00;4.07;;;-0.10;99.90;;;;;;5084206;28;20067;-71
2023/03/08 00:46:27;;;;;;;8.27;5.10;;;-0.10;99.90;;;;;;5084896;28;20040;-71
2023/03/08 00:48:53;;;;;;;;;;;-0.10;99.90;;;;;;5068133;28;20055;-71
2023/03/08 00:51:19;;;;;;;7.63;5.03;;;-0.10;99.90;;;;;;5100556;27;20121;-72
2023/03/08 00:53:46;;;;;;;7.43;4.97;;;-0.20;99.90;;;;;;5049229;28;20056;-71
2023/03/08 00:56:12;;;;;;;8.10;4.70;;;-0.20;99.90;;;;;;5082890;28;20051;-71
2023/03/08 00:58:39;;;;;;;8.40;5.60;;;-0.20;99.90;;;;;;5086922;28;20044;-71
2023/03/08 01:01:07;;;;;;;7.77;5.40;;;-0.20;99.90;;;;;;5082045;28;20067;-71
2023/03/08 01:03:34;;;;;;;7.20;5.60;;;-0.20;99.90;;;;;;5063567;28;20120;-72
2023/03/08 01:06:09;;;;;;;8.50;4.37;;;-0.30;99.90;;;;;;5066062;28;20638;-69
2023/03/08 01:08:35;;;;;;;6.93;4.80;;;-0.20;99.90;;;;;;5078966;28;20510;-72
2023/03/08 01:11:02;;;;;;;8.50;4.93;;;-0.30;99.90;;;;;;5084993;28;20055;-71
2023/03/08 01:13:31;;;;;;;9.63;5.43;;;-0.30;99.90;;;;;;5084371;28;20184;-71
2023/03/08 01:15:57;;;;;;;7.67;5.43;;;-0.30;99.90;;;;;;5084858;28;20036;-69
2023/03/08 01:18:23;;;;;;;7.63;4.80;;;-0.30;99.90;;;;;;5066996;28;20051;-70
2023/03/08 01:21:00;;;;;;;7.30;4.80;;;-0.30;99.90;;;;;;5083188;28;20050;-70
2023/03/08 01:23:26;;;;;;;6.80;4.20;;;-0.30;99.90;;;;;;5067425;28;20040;-70
2023/03/08 01:26:25;;;;;;;5.90;4.40;;;-0.30;99.90;;;;;;5068987;28;20088;-70
2023/03/08 01:29:28;;;;;;;6.93;4.03;;;-0.40;99.90;;;;;;5080934;28;20037;-70
2023/03/08 01:32:13;;;;;;;5.80;4.23;;;-0.30;99.90;;;;;;5080473;28;20031;-70
2023/03/08 01:35:04;;;;;;;6.63;4.20;;;-0.30;99.90;;;;;;5066768;28;20078;-70
2023/03/08 01:37:52;;;;;;;8.60;5.20;;;-0.40;99.90;;;;;;5063101;28;20511;-70
2023/03/08 01:40:18;;;;;;;7.97;4.73;;;-0.50;99.90;;;;;;5080534;28;20499;-70
2023/03/08 01:42:43;;;;;;;7.50;4.57;;;-0.40;99.90;;;;;;5061716;28;20051;-70
2023/03/08 01:45:47;;;;;;;8.83;5.60;;;-0.50;99.90;;;;;;5048518;28;20041;-70
2023/03/08 01:48:14;;;;;;;6.03;4.77;;;-0.50;99.90;;;;;;5057595;28;20036;-70
2023/03/08 01:50:41;;;;;;;8.63;5.23;;;-0.50;99.90;;;;;;5083587;28;20605;-70
2023/03/08 01:53:07;;;;;;;7.67;4.80;;;-0.60;99.90;;;;;;5066197;28;20463;-70
2023/03/08 01:55:34;;;;;;;6.20;4.60;;;-0.60;99.90;;;;;;5083372;28;20032;-70
2023/03/08 01:58:00;;;;;;;8.93;5.13;;;-0.60;99.90;;;;;;5066193;28;20066;-70
2023/03/08 02:00:26;;;;;;;7.90;5.40;;;-0.60;99.90;;;;;;5068129;28;20040;-70
2023/03/08 02:03:02;;;;;;;9.77;6.93;;;-0.60;99.90;;;;;;5083592;28;20524;-71
2023/03/08 02:05:29;;;;;;;13.60;6.50;;;-0.60;99.90;;;;;;5060601;28;20054;-71
2023/03/08 02:07:55;;;;;;;10.73;7.40;;;-0.70;99.90;;;;;;5064621;28;20387;-71
2023/03/08 02:10:21;;;;;;;10.43;8.60;;;-0.70;99.90;;;;;;5078491;28;20055;-71
2023/03/08 02:12:47;;;;;;;11.00;8.77;;;-0.70;99.90;;;;;;5067185;28;20032;-71
2023/03/08 02:15:16;;;;;;;13.17;10.67;;;-0.70;99.90;;;;;;5066382;28;20472;-71
2023/03/08 02:17:43;;;;;;;13.70;12.30;;;-0.70;99.90;;;;;;5064612;28;20032;-71
2023/03/08 02:20:31;;;;;;;14.00;12.43;;;-0.70;99.90;;;;;;5049698;28;20048;-71
2023/03/08 02:23:26;;;;;;;13.53;12.13;;;-0.80;99.90;;;;;;5077636;28;20240;-71
2023/03/08 02:25:59;;;;;;;15.37;13.70;;;-0.80;99.90;;;;;;5048325;28;20052;-71
2023/03/08 02:28:27;;;;;;;17.43;13.50;;;-0.80;99.90;;;;;;5079912;28;20052;-71
2023/03/08 02:30:57;;;;;;;16.47;14.73;;;-0.80;99.90;;;;;;5067051;28;20051;-71
2023/03/08 02:33:22;;;;;;;16.23;14.52;;;-0.80;99.90;;;;;;5074920;28;20040;-71
2023/03/08 02:35:49;;;;;;;16.87;15.03;;;-0.90;99.90;;;;;;5059175;28;20032;-71
2023/03/08 02:38:17;;;;;;;19.50;17.47;;;-0.90;99.90;;;;;;5061278;28;20052;-71
2023/03/08 02:40:43;;;;;;;16.77;15.00;;;-0.90;99.90;;;;;;5083407;28;20040;-70
2023/03/08 02:43:09;;;;;;;20.50;18.47;;;-0.90;99.90;;;;;;5083377;28;20443;-70
2023/03/08 02:45:35;;;;;;;19.27;17.27;;;-0.90;99.90;;;;;;5082678;28;20130;-70
2023/03/08 02:48:03;;;;;;;20.47;18.33;;;-0.90;99.90;;;;;;5066071;28;20040;-70
2023/03/08 02:50:29;;;;;;;18.90;17.00;;;-0.90;99.90;;;;;;5065209;28;20047;-70
2023/03/08 02:52:54;;;;;;;20.17;18.27;;;-0.90;99.90;;;;;;5085714;28;20040;-70
2023/03/08 02:55:20;;;;;;;21.83;19.73;;;-0.90;99.90;;;;;;5065119;28;20036;-70
2023/03/08 02:57:49;;;;;;;19.23;17.23;;;-0.90;99.90;;;;;;5083662;28;20550;-70
2023/03/08 03:00:15;;;;;;;22.30;20.20;;;-0.90;99.90;;;;;;5061381;28;20495;-70
2023/03/08 03:02:41;;;;;;;19.73;17.63;;;-0.90;99.90;;;;;;5042072;28;20121;-70
2023/03/08 03:05:12;;;;;;;19.80;17.70;;;-1.00;99.90;;;;;;5066176;28;20093;-70
2023/03/08 03:07:39;;;;;;;20.30;18.30;;;-0.90;99.90;;;;;;5074873;28;20456;-70
2023/03/08 03:10:06;;;;;;;21.03;18.93;;;-0.90;99.90;;;;;;5075223;28;20156;-70
2023/03/08 03:12:31;;;;;;;25.13;22.63;;;-0.90;99.90;;;;;;5070745;28;20047;-72
2023/03/08 03:14:57;;;;;;;26.37;23.83;;;-0.90;99.90;;;;;;5083974;28;20071;-70
2023/03/08 03:17:23;;;;;;;24.77;22.27;;;-0.90;99.90;;;;;;5070086;28;20403;-70
2023/03/08 03:19:48;;;;;;;22.23;20.23;;;-0.90;99.90;;;;;;5088485;28;20188;-70
2023/03/08 03:22:14;;;;;;;29.80;26.77;;;-0.80;99.90;;;;;;5050881;28;20384;-70
2023/03/08 03:24:40;;;;;;;22.40;20.13;;;-0.90;99.90;;;;;;5061721;28;20044;-71
2023/03/08 03:27:06;;;;;;;24.87;22.50;;;-0.90;99.90;;;;;;5020631;28;20051;-71
2023/03/08 03:29:31;;;;;;;24.37;21.80;;;-0.90;99.90;;;;;;5055313;28;20075;-71
2023/03/08 03:31:57;;;;;;;24.20;21.97;;;-1.00;99.90;;;;;;5084963;28;20047;-71
2023/03/08 03:34:23;;;;;;;21.33;19.33;;;-1.00;99.90;;;;;;5065562;28;20496;-71
2023/03/08 03:36:49;;;;;;;23.83;21.40;;;-1.00;99.90;;;;;;5049756;28;20047;-71
2023/03/08 03:39:15;;;;;;;22.07;20.07;;;-1.00;99.90;;;;;;5052633;28;20056;-71
2023/03/08 03:41:41;;;;;;;27.03;24.23;;;-1.00;99.90;;;;;;5048432;28;20113;-70
2023/03/08 03:44:07;;;;;;;21.23;19.10;;;-1.00;99.90;;;;;;5068655;28;20051;-70
2023/03/08 03:46:32;;;;;;;23.57;21.23;;;-1.00;99.90;;;;;;5050781;28;20694;-72
2023/03/08 03:48:58;;;;;;;23.40;21.23;;;-0.90;99.90;;;;;;5054289;28;20067;-72
2023/03/08 03:51:26;;;;;;;25.97;23.27;;;-1.10;99.90;;;;;;5068842;28;20048;-72
2023/03/08 03:53:52;;;;;;;28.97;26.13;;;-1.10;99.90;;;;;;5053496;28;20033;-73
2023/03/08 03:56:20;;;;;;;23.23;21.07;;;-1.10;99.90;;;;;;5067889;28;20092;-73
2023/03/08 03:58:47;;;;;;;31.03;28.10;;;-1.10;99.90;;;;;;5070026;28;20558;-72
2023/03/08 04:01:24;;;;;;;22.47;20.37;;;-1.10;99.90;;;;;;5064986;28;20059;-72
2023/03/08 04:03:51;;;;;;;26.67;23.67;;;-1.10;99.90;;;;;;5069065;28;20043;-72
2023/03/08 04:06:32;;;;;;;28.83;25.90;;;-1.20;99.90;;;;;;5071632;28;20052;-71
2023/03/08 04:09:05;;;;;;;;;;;-1.20;99.90;;;;;;5061132;28;20044;-72
2023/03/08 04:11:35;;;;;;;26.40;23.87;;;-1.20;99.90;;;;;;5085085;28;20393;-72
2023/03/08 04:14:02;;;;;;;21.57;19.57;;;-1.20;99.90;;;;;;5084760;28;20105;-70
2023/03/08 04:16:30;;;;;;;24.37;22.07;;;-1.20;99.90;;;;;;5049783;28;20044;-71
2023/03/08 04:18:58;;;;;;;22.37;20.37;;;-1.20;99.90;;;;;;5053525;28;20052;-73
2023/03/08 04:21:25;;;;;;;23.50;21.23;;;-1.20;99.90;;;;;;5060566;28;20070;-72
2023/03/08 04:23:51;;;;;;;21.53;19.70;;;-1.20;99.90;;;;;;5059313;28;20061;-73
2023/03/08 04:26:17;;;;;;;27.10;24.63;;;-1.20;99.90;;;;;;5057477;28;20060;-72
2023/03/08 04:28:43;;;;;;;32.00;29.00;;;-1.30;99.90;;;;;;5061202;28;20071;-70
2023/03/08 04:31:21;;;;;;;23.73;21.63;;;-1.30;99.90;;;;;;5076738;28;20397;-70
2023/03/08 04:33:49;;;;;;;25.30;23.20;;;-1.30;99.90;;;;;;5052141;28;20102;-70
2023/03/08 04:36:16;;;;;;;22.37;20.10;;;-1.30;99.90;;;;;;5055120;28;20071;-70
2023/03/08 04:38:42;;;;;;;29.77;26.87;;;-1.20;99.90;;;;;;5075460;28;20616;-70
2023/03/08 04:41:11;;;;;;;31.07;28.17;;;-1.20;99.90;;;;;;5057146;28;20056;-71
2023/03/08 04:43:47;;;;;;;22.77;20.67;;;-1.30;99.90;;;;;;5057446;28;20052;-71
2023/03/08 04:46:15;;;;;;;22.07;19.97;;;-1.20;99.90;;;;;;5056261;28;20072;-71
2023/03/08 04:48:41;;;;;;;28.97;26.10;;;-1.30;99.90;;;;;;5078694;28;20032;-71
2023/03/08 04:51:07;;;;;;;20.70;18.80;;;-1.20;99.90;;;;;;5042167;28;20048;-71
2023/03/08 04:53:34;;;;;;;27.00;24.60;;;-1.30;99.90;;;;;;5058383;28;20064;-70
2023/03/08 04:56:00;;;;;;;27.43;24.93;;;-1.20;99.90;;;;;;5073742;28;20032;-71
2023/03/08 04:58:28;;;;;;;23.80;21.57;;;-1.30;99.90;;;;;;5072168;28;20701;-71
2023/03/08 05:00:54;;;;;;;20.77;18.87;;;-1.30;99.90;;;;;;5059207;28;20054;-71
2023/03/08 05:03:20;;;;;;;28.83;26.20;;;-1.30;99.90;;;;;;5060772;28;20038;-70
2023/03/08 05:05:47;;;;;;;24.30;22.17;;;-1.40;99.90;;;;;;5077904;28;20135;-71
2023/03/08 05:08:13;;;;;;;27.03;24.47;;;-1.30;99.90;;;;;;5078626;28;20581;-71
2023/03/08 05:10:45;;;;;;;27.30;24.87;;;-1.30;99.90;;;;;;5053717;28;20046;-70
2023/03/08 05:13:11;;;;;;;20.33;18.43;;;-1.30;99.90;;;;;;5047926;28;20119;-71
2023/03/08 05:15:36;;;;;;;22.30;20.30;;;-1.40;99.90;;;;;;5079132;28;20115;-71
2023/03/08 05:18:02;;;;;;;20.13;18.33;;;-1.40;99.90;;;;;;5077642;28;20056;-71
2023/03/08 05:20:28;;;;;;;21.03;19.13;;;-1.40;99.90;;;;;;5054318;28;20097;-71
2023/03/08 05:22:57;;;;;;;24.47;21.97;;;-1.40;99.90;;;;;;5044288;28;20513;-71
2023/03/08 05:25:23;;;;;;;24.33;22.10;;;-1.40;99.90;;;;;;5055695;28;20046;-71
2023/03/08 05:27:49;;;;;;;20.77;18.40;;;-1.40;99.90;;;;;;5043810;28;20056;-71
2023/03/08 05:30:14;;;;;;;23.33;21.10;;;-1.40;99.90;;;;;;5057199;28;20238;-71
2023/03/08 05:32:40;;;;;;;21.13;19.23;;;-1.40;99.90;;;;;;5074321;28;20752;-71
2023/03/08 05:35:08;;;;;;;20.83;18.93;;;-1.40;99.90;;;;;;5075923;28;20249;-71
2023/03/08 05:37:33;;;;;;;23.63;21.50;;;-1.40;99.90;;;;;;5075626;28;20119;-72
2023/03/08 05:39:59;;;;;;;21.87;19.87;;;-1.50;99.90;;;;;;5058713;28;20139;-72
2023/03/08 05:42:26;;;;;;;20.50;18.63;;;-1.50;99.90;;;;;;5056871;28;20129;-72
2023/03/08 05:44:52;;;;;;;20.67;18.80;;;-1.50;99.90;;;;;;5042044;28;20513;-71
2023/03/08 05:47:18;;;;;;;24.13;22.00;;;-1.50;99.90;;;;;;5074484;28;20043;-71
2023/03/08 05:49:43;;;;;;;23.10;21.00;;;-1.50;99.90;;;;;;5075643;28;20557;-72
2023/03/08 05:52:09;;;;;;;23.53;21.43;;;-1.50;99.90;;;;;;5068452;28;20052;-71
2023/03/08 05:54:35;;;;;;;21.73;19.83;;;-1.60;99.90;;;;;;5087664;28;20044;-71
2023/03/08 05:57:01;;;;;;;23.70;21.47;;;-1.50;99.90;;;;;;5073856;28;20044;-72
2023/03/08 05:59:26;;;;;;;25.60;23.30;;;-1.50;99.90;;;;;;5056361;28;20463;-72
2023/03/08 06:01:52;;;;;;;25.90;23.60;;;-1.50;99.90;;;;;;5038066;28;20046;-71
2023/03/08 06:04:18;;;;;;;25.13;22.93;;;-1.60;99.90;;;;;;5055123;28;20051;-72
2023/03/08 06:06:44;;;;;;;26.13;23.83;;;-1.60;99.90;;;;;;5058178;28;20051;-71
2023/03/08 06:09:10;;;;;;;27.37;24.97;;;-1.60;99.90;;;;;;5055822;28;21168;-71
2023/03/08 06:11:35;;;;;;;22.87;20.87;;;-1.60;99.90;;;;;;5074167;28;20040;-70
2023/03/08 06:14:01;;;;;;;25.27;23.03;;;-1.60;99.90;;;;;;5073087;28;20134;-70
2023/03/08 06:16:27;;;;;;;28.13;25.70;;;-1.60;99.90;;;;;;5085860;27;20032;-70
2023/03/08 06:18:53;;;;;;;23.87;21.60;;;-1.50;99.90;;;;;;5041098;28;20526;-70
2023/03/08 06:21:20;;;;;;;24.57;22.37;;;-1.60;99.90;;;;;;5056165;28;20047;-71
2023/03/08 06:23:47;;;;;;;23.93;21.63;;;-1.60;99.90;;;;;;5055245;28;20048;-71
2023/03/08 06:26:14;;;;;;;25.20;22.77;;;-1.60;99.90;;;;;;5054768;28;20483;-72
2023/03/08 06:28:40;;;;;;;23.97;21.80;;;-1.60;99.90;;;;;;5056260;28;20544;-71
2023/03/08 06:31:07;;;;;;;22.10;20.13;;;-1.60;99.90;;;;;;5053937;28;20058;-71
2023/03/08 06:33:34;;;;;;;25.07;22.80;;;-1.60;99.90;;;;;;5076146;28;20055;-71
2023/03/08 06:36:03;;;;;;;24.90;22.80;;;-1.60;99.90;;;;;;5059942;28;20067;-74
2023/03/08 06:38:30;;;;;;;23.23;21.03;;;-1.60;99.90;;;;;;5071688;28;20072;-71
2023/03/08 06:40:57;;;;;;;26.87;24.50;;;-1.60;99.90;;;;;;5076436;28;20052;-72
2023/03/08 06:43:23;;;;;;;24.87;22.53;;;-1.60;99.90;;;;;;5058644;28;20104;-72
2023/03/08 06:45:48;;;;;;;27.47;25.07;;;-1.50;99.90;;;;;;5063214;28;20313;-71
2023/03/08 06:48:14;;;;;;;25.37;23.17;;;-1.50;99.90;;;;;;5064136;28;20073;-72
2023/03/08 06:50:41;;;;;;;27.90;25.17;;;-1.50;99.90;;;;;;5050749;28;20036;-72
2023/03/08 06:53:07;;;;;;;27.83;25.23;;;-1.40;99.90;;;;;;5059909;28;20063;-72
2023/03/08 06:55:37;;;;;;;28.37;25.97;;;-1.40;99.90;;;;;;5071040;28;20036;-72
2023/03/08 06:58:04;;;;;;;25.13;22.87;;;-1.30;99.90;;;;;;5076795;28;20044;-72
2023/03/08 07:00:30;;;;;;;28.93;26.27;;;-1.30;99.90;;;;;;5058167;28;20044;-72
2023/03/08 07:02:55;;;;;;;27.33;24.73;;;-1.20;99.90;;;;;;5039362;28;20454;-74
2023/03/08 07:05:22;;;;;;;27.33;24.87;;;-1.10;99.90;;;;;;5057736;28;20491;-74
2023/03/08 07:07:48;;;;;;;29.37;26.93;;;-1.00;99.90;;;;;;5073963;28;20028;-74
2023/03/08 07:10:16;;;;;;;27.83;25.13;;;-1.00;99.90;;;;;;5075333;28;21099;-75
2023/03/08 07:12:47;;;;;;;26.80;24.50;;;-1.10;99.90;;;;;;5058660;28;20036;-74
2023/03/08 07:15:14;;;;;;;32.27;29.33;;;-1.00;99.90;;;;;;5059319;28;20047;-74
2023/03/08 07:17:41;;;;;;;31.37;28.53;;;-1.00;99.90;;;;;;5075298;28;20959;-74
2023/03/08 07:20:08;;;;;;;24.90;22.80;;;-1.00;99.90;;;;;;5071773;28;20047;-74
2023/03/08 07:22:34;;;;;;;31.73;28.90;;;-1.00;99.90;;;;;;5041739;28;20050;-74
2023/03/08 07:25:00;;;;;;;27.63;25.23;;;-0.90;99.90;;;;;;5072441;28;20044;-75
2023/03/08 07:27:26;;;;;;;30.13;27.47;;;-1.00;99.90;;;;;;5074065;28;20444;-74
2023/03/08 07:29:51;;;;;;;26.83;24.20;;;-0.90;99.90;;;;;;5028130;28;20044;-74
2023/03/08 07:32:17;;;;;;;30.57;27.73;;;-0.90;99.90;;;;;;5074296;28;20070;-74
2023/03/08 07:34:43;;;;;;;29.53;26.83;;;-0.80;99.90;;;;;;5077582;28;20044;-74
2023/03/08 07:37:16;;;;;;;26.47;24.17;;;-0.80;99.90;;;;;;5058413;28;20036;-74
2023/03/08 07:39:41;;;;;;;27.23;24.50;;;-0.80;99.90;;;;;;5073085;28;20079;-73
2023/03/08 07:42:09;;;;;;;26.57;24.03;;;-0.70;99.90;;;;;;5077328;28;20470;-73
2023/03/08 07:44:36;;;;;;;27.70;25.30;;;-0.70;99.90;;;;;;5055486;28;20039;-73
2023/03/08 07:47:03;;;;;;;25.87;23.43;;;-0.70;99.90;;;;;;5060123;28;20055;-73
2023/03/08 07:49:29;;;;;;;22.63;20.73;;;-0.70;99.90;;;;;;5054750;28;20139;-74
2023/03/08 07:51:55;;;;;;;25.17;23.03;;;-0.70;99.90;;;;;;5059264;28;20130;-75
2023/03/08 07:54:21;;;;;;;25.47;23.27;;;-0.60;99.90;;;;;;5042825;28;20044;-75
2023/03/08 07:56:47;;;;;;;22.47;20.47;;;-0.60;99.90;;;;;;5074909;28;20044;-73
2023/03/08 07:59:13;;;;;;;26.13;23.93;;;-0.60;99.90;;;;;;5067250;28;20052;-74
2023/03/08 08:01:39;;;;;;;24.90;22.70;;;-0.50;99.90;;;;;;5078219;28;20522;-74
2023/03/08 08:04:06;;;;;;;27.90;25.37;;;-0.50;99.90;;;;;;5045796;28;20048;-74
2023/03/08 08:06:35;;;;;;;24.50;22.47;;;-0.40;99.90;;;;;;5048660;28;20047;-74
2023/03/08 08:09:01;;;;;;;24.07;22.17;;;-0.40;99.90;;;;;;5078883;28;20502;-74
2023/03/08 08:11:27;;;;;;;25.40;23.13;;;-0.40;99.90;;;;;;5061926;28;20185;-74
2023/03/08 08:13:53;;;;;;;23.90;21.90;;;-0.20;99.90;;;;;;5046416;28;20103;-75
2023/03/08 08:16:19;;;;;;;24.07;22.07;;;-0.20;99.90;;;;;;5045736;28;20044;-75
2023/03/08 08:18:45;;;;;;;23.50;20.83;;;-0.10;99.90;;;;;;5058426;28;20180;-75
2023/03/08 08:21:14;;;;;;;22.60;20.57;;;0.00;99.90;;;;;;5028052;28;20071;-74
2023/03/08 08:23:41;;;;;;;22.20;20.00;;;0.00;99.90;;;;;;5061933;28;20036;-74
2023/03/08 08:26:19;;;;;;;22.27;20.30;;;0.20;99.90;;;;;;5059572;28;20572;-74
2023/03/08 08:28:47;;;;;;;23.70;21.50;;;0.30;99.90;;;;;;5077944;28;20245;-75
2023/03/08 08:31:16;;;;;;;20.70;18.90;;;0.40;99.90;;;;;;5077337;28;20117;-74
2023/03/08 08:33:41;;;;;;;20.63;18.70;;;0.40;99.90;;;;;;5092424;28;20036;-74
2023/03/08 08:36:10;;;;;;;20.67;18.70;;;0.50;99.90;;;;;;5075959;28;20458;-74
2023/03/08 08:38:36;;;;;;;20.40;18.40;;;0.50;99.90;;;;;;5060173;28;20978;-74
2023/03/08 08:41:04;;;;;;;19.63;17.93;;;0.50;99.90;;;;;;5060851;28;20113;-73
2023/03/08 08:43:31;;;;;;;20.20;18.40;;;0.50;99.90;;;;;;5076718;28;20101;-74
2023/03/08 08:45:59;;;;;;;18.87;17.17;;;0.60;99.90;;;;;;5077344;28;20050;-74
2023/03/08 08:48:26;;;;;;;21.73;19.93;;;0.60;99.90;;;;;;5079829;28;20316;-74
2023/03/08 08:50:52;;;;;;;20.00;18.20;;;0.70;99.90;;;;;;5058605;28;20555;-74
2023/03/08 08:53:18;;;;;;;17.73;16.13;;;0.80;99.90;;;;;;5078240;28;20044;-74
2023/03/08 08:55:44;;;;;;;19.70;17.87;;;0.80;99.90;;;;;;5068568;28;20413;-74
2023/03/08 08:58:10;;;;;;;18.47;16.87;;;0.80;99.90;;;;;;5079042;28;20061;-75
2023/03/08 09:00:36;;;;;;;19.23;17.40;;;0.90;99.90;;;;;;5045038;28;20053;-74
2023/03/08 09:03:03;;;;;;;19.77;17.93;;;0.90;99.90;;;;;;5075721;28;20048;-74
2023/03/08 09:05:30;;;;;;;18.73;17.03;;;0.90;99.90;;;;;;5072916;28;20470;-73
2023/03/08 09:07:58;;;;;;;19.73;18.03;;;1.00;99.90;;;;;;5076896;28;20067;-73
2023/03/08 09:10:25;;;;;;;21.33;19.13;;;1.00;99.90;;;;;;5060199;28;20039;-73
2023/03/08 09:12:51;;;;;;;19.87;18.07;;;1.10;99.90;;;;;;5073875;28;20642;-74
2023/03/08 09:15:17;;;;;;;21.77;19.63;;;1.00;99.90;;;;;;5058823;28;20040;-72
2023/03/08 09:17:43;;;;;;;20.47;18.60;;;1.00;99.90;;;;;;5060030;28;20432;-74
2023/03/08 09:20:10;;;;;;;20.20;18.37;;;1.00;99.90;;;;;;5056665;28;20056;-72
2023/03/08 09:22:36;;;;;;;21.67;19.73;;;1.10;99.90;;;;;;5077417;28;20046;-71
2023/03/08 09:25:04;;;;;;;21.73;19.43;;;1.10;99.90;;;;;;5057058;28;20508;-71
2023/03/08 09:27:30;;;;;;;22.77;20.63;;;1.10;99.90;;;;;;5076678;28;20044;-72
2023/03/08 09:29:56;;;;;;;23.03;20.73;;;1.20;99.90;;;;;;5057691;28;20032;-72
2023/03/08 09:32:22;;;;;;;20.57;18.57;;;1.20;99.90;;;;;;5077617;28;20055;-72
2023/03/08 09:34:49;;;;;;;21.17;19.17;;;1.20;99.90;;;;;;5074684;28;20055;-73
2023/03/08 09:37:15;;;;;;;21.50;19.50;;;1.20;99.90;;;;;;5058887;28;20040;-73
2023/03/08 09:39:41;;;;;;;19.67;17.77;;;1.20;99.90;;;;;;5073456;28;20186;-72
2023/03/08 09:42:20;;;;;;;20.50;18.53;;;1.30;99.90;;;;;;5059109;28;20081;-72
2023/03/08 09:45:06;;;;;;;19.87;18.13;;;1.30;99.90;;;;;;5092462;27;20043;-71
2023/03/08 09:47:47;;;;;;;20.80;18.93;;;1.40;99.90;;;;;;5071973;28;20043;-72
2023/03/08 09:50:30;;;;;;;21.67;19.83;;;1.50;99.90;;;;;;5075375;28;20548;-72
2023/03/08 09:53:03;;;;;;;21.70;19.60;;;1.50;99.90;;;;;;5072643;28;20388;-72
2023/03/08 09:55:35;;;;;;;22.70;20.60;;;1.60;99.90;;;;;;5057080;28;20044;-72
2023/03/08 09:58:22;;;;;;;20.70;18.70;;;1.60;99.90;;;;;;5074138;28;20048;-72
2023/03/08 10:00:48;;;;;;;21.53;19.63;;;1.70;99.90;;;;;;5075622;28;20056;-72
2023/03/08 10:03:47;;;;;;;21.10;19.10;;;1.80;99.90;;;;;;5058933;28;20262;-72
2023/03/08 10:06:24;;;;;;;19.17;17.30;;;1.80;99.90;;;;;;5056766;28;20131;-72
2023/03/08 10:09:10;;;;;;;19.90;17.93;;;1.90;99.90;;;;;;5075505;28;20079;-72
2023/03/08 10:11:50;;;;;;;20.83;18.93;;;1.90;99.90;;;;;;5089286;28;20127;-73
2023/03/08 10:14:25;;;;;;;20.87;18.93;;;1.90;99.90;;;;;;5056871;28;20422;-72
2023/03/08 10:16:56;;;;;;;18.30;16.70;;;2.00;99.90;;;;;;5061023;28;20422;-72
2023/03/08 10:19:34;;;;;;;18.27;16.47;;;2.10;99.90;;;;;;5071040;28;20411;-72
2023/03/08 10:22:07;;;;;;;17.40;15.80;;;2.00;99.90;;;;;;5071198;28;20100;-71
2023/03/08 10:24:49;;;;;;;16.27;14.77;;;2.00;99.90;;;;;;5050649;28;20507;-72
2023/03/08 10:27:19;;;;;;;15.07;13.47;;;2.10;99.90;;;;;;5070820;28;20052;-72
2023/03/08 10:29:53;;;;;;;14.88;13.38;;;2.10;99.90;;;;;;5073944;28;20043;-72
2023/03/08 10:32:20;;;;;;;14.83;13.43;;;2.10;99.90;;;;;;5074032;28;20494;-71
2023/03/08 10:34:46;;;;;;;14.30;12.97;;;2.10;99.90;;;;;;5057769;28;20036;-72
2023/03/08 10:37:13;;;;;;;13.87;12.67;;;2.30;99.90;;;;;;5073711;28;20055;-72
2023/03/08 10:39:54;;;;;;;13.97;12.57;;;2.30;99.90;;;;;;5072060;28;20140;-71
2023/03/08 10:42:28;;;;;;;13.45;12.15;;;2.40;99.90;;;;;;5041455;28;20273;-72
2023/03/08 10:45:01;;;;;;;12.47;10.60;;;2.50;99.90;;;;;;5074339;28;20043;-72
2023/03/08 10:47:33;;;;;;;11.47;10.37;;;2.50;99.90;;;;;;5053450;28;20503;-72
2023/03/08 10:50:20;;;;;;;10.87;8.63;;;2.70;99.90;;;;;;5072661;28;20044;-72
2023/03/08 10:52:48;;;;;;;10.70;9.23;;;2.80;99.90;;;;;;5056498;28;20126;-71
2023/03/08 10:55:15;;;;;;;9.17;8.10;;;2.90;99.90;;;;;;5055058;28;20036;-72
2023/03/08 10:57:53;;;;;;;9.60;8.60;;;2.90;99.90;;;;;;5070483;28;20130;-71
2023/03/08 11:00:19;;;;;;;9.13;7.40;;;3.00;99.90;;;;;;5057166;28;20337;-72
2023/03/08 11:02:47;;;;;;;7.97;5.60;;;3.00;99.90;;;;;;5073198;28;20132;-73
2023/03/08 11:05:21;;;;;;;7.10;5.80;;;3.20;99.90;;;;;;5090629;28;20067;-72
2023/03/08 11:07:52;;;;;;;7.82;5.53;;;3.20;99.90;;;;;;5055286;28;20052;-72
2023/03/08 11:10:22;;;;;;;6.07;4.87;;;3.30;99.90;;;;;;5056649;28;20048;-72
2023/03/08 11:13:05;;;;;;;7.45;4.78;;;3.40;99.90;;;;;;5053942;28;20044;-72
2023/03/08 11:15:36;;;;;;;6.97;3.73;;;3.50;99.90;;;;;;5053608;28;20040;-71
2023/03/08 11:18:18;;;;;;;5.10;3.50;;;3.50;99.90;;;;;;5072690;28;20124;-72
2023/03/08 11:20:54;;;;;;;6.82;5.40;;;3.60;99.90;;;;;;5072151;28;20047;-71
2023/03/08 11:23:37;;;;;;;7.47;3.53;;;3.60;99.90;;;;;;5075022;28;20071;-74
2023/03/08 11:26:29;;;;;;;4.90;2.75;;;3.60;99.90;;;;;;5053654;28;20214;-71
2023/03/08 11:29:13;;;;;;;6.30;2.83;;;3.70;99.90;;;;;;5055691;28;20044;-71
2023/03/08 11:31:59;;;;;;;6.57;4.20;;;3.70;99.90;;;;;;5090951;28;20060;-71
2023/03/08 11:34:40;;;;;;;4.97;2.05;;;3.80;99.90;;;;;;5074119;28;20059;-72
2023/03/08 11:37:26;;;;;;;5.95;3.25;;;3.80;99.90;;;;;;5078331;28;20043;-72
2023/03/08 11:40:06;;;;;;;6.05;3.00;;;3.80;99.90;;;;;;5080748;28;20048;-72
2023/03/08 11:42:42;;;;;;;7.30;3.80;;;3.80;99.90;;;;;;5092187;28;20138;-72
2023/03/08 11:45:21;;;;;;;9.57;3.80;;;3.80;99.90;;;;;;5056798;28;20052;-72
2023/03/08 11:48:17;;;;;;;8.07;2.28;;;3.80;99.90;;;;;;5061157;28;20085;-71
2023/03/08 11:50:50;;;;;;;7.30;2.40;;;3.80;99.90;;;;;;5060390;28;20585;-71
2023/03/08 11:53:25;;;;;;;6.65;3.28;;;3.80;99.90;;;;;;5076102;28;20098;-72
2023/03/08 11:56:19;;;;;;;6.60;3.40;;;3.80;99.90;;;;;;5076963;28;20032;-72
2023/03/08 11:58:53;;;;;;;7.38;3.03;;;3.90;99.90;;;;;;5076575;28;20404;-70
2023/03/08 12:01:23;;;;;;;8.55;3.08;;;3.90;99.90;;;;;;5089548;27;20040;-73
2023/03/08 12:03:53;;;;;;;8.57;3.55;;;3.90;99.90;;;;;;5078159;28;20056;-71
2023/03/08 12:06:42;;;;;;;5.75;4.70;;;3.90;99.90;;;;;;5074464;28;20127;-71
2023/03/08 12:09:29;;;;;;;6.93;4.27;;;3.90;99.90;;;;;;5058996;28;20308;-71
2023/03/08 12:12:01;;;;;;;6.22;3.72;;;3.90;99.90;;;;;;5077727;28;20067;-73
2023/03/08 12:14:33;;;;;;;6.00;3.92;;;3.90;99.90;;;;;;5088682;27;20052;-71
2023/03/08 12:17:37;;;;;;;8.38;4.90;;;3.90;99.90;;;;;;5077136;28;20036;-71
2023/03/08 12:20:06;;;;;;;6.28;4.25;;;3.90;99.90;;;;;;5060740;28;20250;-72
2023/03/08 12:22:44;;;;;;;6.18;3.97;;;3.90;99.90;;;;;;5073883;28;20040;-72
2023/03/08 12:25:27;;;;;;;9.02;5.60;;;4.00;99.90;;;;;;5061307;28;20083;-72
2023/03/08 12:28:11;;;;;;;8.55;5.18;;;4.00;99.90;;;;;;5074936;28;21194;-72
2023/03/08 12:31:07;;;;;;;8.52;4.43;;;4.00;99.90;;;;;;5058669;28;20424;-72
2023/03/08 12:33:33;;;;;;;7.95;4.35;;;4.00;99.90;;;;;;5058372;28;20048;-72
2023/03/08 12:36:02;;;;;;;8.93;2.75;;;4.20;99.90;;;;;;5056976;28;20032;-72
2023/03/08 12:38:33;;;;;;;8.15;3.33;;;4.10;99.90;;;;;;5060609;28;20109;-72
2023/03/08 12:40:59;;;;;;;7.28;2.72;;;4.10;99.90;;;;;;5056913;28;20131;-71
2023/03/08 12:43:25;;;;;;;6.88;3.88;;;4.10;99.90;;;;;;5058771;28;20044;-71
2023/03/08 12:46:06;;;;;;;5.80;2.95;;;4.10;99.90;;;;;;5074515;28;20062;-71
2023/03/08 12:48:44;;;;;;;6.93;3.50;;;4.10;99.90;;;;;;5059288;28;20108;-71
2023/03/08 12:51:15;;;;;;;9.18;4.75;;;4.10;99.90;;;;;;5072856;28;20036;-71